Terminal Aerodrome Forecast
Issued by NWS

Home | Current Version | Previous Version | Text Only | Print | Product List | Glossary On
Versions: 1 2 3 4 5 6 7 8 9 10 11
000
FTUS45 KTFX 121123
TAFGTF
TAF
KGTF 121123Z 1212/1312 21015KT P6SM SCT200
     FM121500 23022G30KT P6SM SCT200
      TEMPO 1219/1222 24025G45KT
     FM130000 23016KT P6SM SCT150
     FM130400 23008KT P6SM FEW150=

USA.gov is the U.S. government's official web portal to all federal, state and local government web resources and services.